Guysville, Ohio
Current Conditions -  °F | °C
As of 11:15 AM on Thursday 27 Nov 2014 (Local Time) from KUNI Reporting Station
Haze Haze  
Wind Chill: 24°   Ceiling: 1400
Heat Index: 32°   Visibility: 5mi
Dew Point: 27°   Wind: 10mph
Humidity: 83%   Direction: 290°WNW
Pressure: 30.19"   Gusts: NA
Location:  39.29°N, 81.92°W
Report Text: KUNI 271615Z AUTO 29009KT 5SM HZ OVC014 00/M03 A3019 RMK AO2 T00001026
Loading
Personal Weather Stations






























Interactive Weather Map New forecast layout! Learn more

10-Day Weather Forecast

Advertisements
Track Severe Weather on mobile